NKS1833 KDTW-KDFW
Flight info
| Callsign | NKS1833 |
|---|---|
| Flight time | 2h 38m |
| Altitude | 32000 |
| Route | SNDRS3 BGHRT STL/N0466F340 RZC FSM RRNET BRDJE5 |
| Aircraft | A320/M-SDE3FGHIRWY/LB1 |
Departure
| Time | 2026-05-07 19:44 |
|---|---|
| Airport | Detroit Metropolitan Wayne County Airport (KDTW) |
Arrival
| Time | 2026-05-07 22:22 |
|---|---|
| Airport | Dallas Fort Worth International Airport (KDFW) |
| Time | Latitude | Longitude | Altitude | Speed | Heading |
|---|---|---|---|---|---|
| 2026-05-07 18:47 | 42.22477 | -83.34992 | 649 ft | 0 kts | 146° |
| 2026-05-07 19:31 | 42.22478 | -83.34993 | 647 ft | 2 kts | 146° |
| 2026-05-07 19:31 | 42.22499 | -83.35012 | 647 ft | 4 kts | 146° |
| 2026-05-07 19:32 | 42.22516 | -83.35029 | 651 ft | 4 kts | 148° |
| 2026-05-07 19:32 | 42.22539 | -83.35042 | 649 ft | 4 kts | 191° |
| 2026-05-07 19:32 | 42.22559 | -83.35030 | 647 ft | 3 kts | 208° |
| 2026-05-07 19:32 | 42.22563 | -83.35027 | 647 ft | 0 kts | 208° |
| 2026-05-07 19:35 | 42.22562 | -83.35028 | 647 ft | 1 kts | 208° |
| 2026-05-07 19:36 | 42.22550 | -83.35037 | 648 ft | 3 kts | 208° |
| 2026-05-07 19:36 | 42.22520 | -83.35059 | 650 ft | 7 kts | 208° |
| 2026-05-07 19:36 | 42.22454 | -83.35106 | 647 ft | 12 kts | 211° |
| 2026-05-07 19:36 | 42.22396 | -83.35202 | 650 ft | 14 kts | 237° |
| 2026-05-07 19:37 | 42.22338 | -83.35308 | 649 ft | 14 kts | 223° |
| 2026-05-07 19:37 | 42.22246 | -83.35381 | 648 ft | 17 kts | 208° |
| 2026-05-07 19:37 | 42.22135 | -83.35463 | 647 ft | 19 kts | 209° |
| 2026-05-07 19:37 | 42.22016 | -83.35551 | 647 ft | 19 kts | 208° |
| 2026-05-07 19:38 | 42.21904 | -83.35634 | 646 ft | 19 kts | 209° |
| 2026-05-07 19:38 | 42.21819 | -83.35605 | 646 ft | 15 kts | 105° |
| 2026-05-07 19:38 | 42.21821 | -83.35455 | 646 ft | 17 kts | 88° |
| 2026-05-07 19:38 | 42.21824 | -83.35285 | 648 ft | 19 kts | 88° |
| 2026-05-07 19:39 | 42.21827 | -83.35098 | 647 ft | 20 kts | 89° |
| 2026-05-07 19:39 | 42.21831 | -83.34906 | 647 ft | 21 kts | 88° |
| 2026-05-07 19:39 | 42.21836 | -83.34704 | 647 ft | 22 kts | 88° |
| 2026-05-07 19:39 | 42.21836 | -83.34567 | 648 ft | 19 kts | 89° |
| 2026-05-07 19:40 | 42.21958 | -83.34424 | 647 ft | 19 kts | 30° |
| 2026-05-07 19:40 | 42.22092 | -83.34326 | 648 ft | 24 kts | 28° |
| 2026-05-07 19:40 | 42.22241 | -83.34218 | 647 ft | 24 kts | 29° |
| 2026-05-07 19:40 | 42.22391 | -83.34107 | 649 ft | 25 kts | 27° |
| 2026-05-07 19:41 | 42.22543 | -83.33995 | 647 ft | 25 kts | 29° |
| 2026-05-07 19:41 | 42.22698 | -83.33881 | 648 ft | 24 kts | 30° |
| 2026-05-07 19:41 | 42.22819 | -83.33791 | 647 ft | 16 kts | 28° |
| 2026-05-07 19:41 | 42.22852 | -83.33699 | 645 ft | 13 kts | 121° |
| 2026-05-07 19:42 | 42.22814 | -83.33624 | 645 ft | 3 kts | 175° |
| 2026-05-07 19:42 | 42.22799 | -83.33637 | 645 ft | 0 kts | 208° |
| 2026-05-07 19:43 | 42.22793 | -83.33641 | 645 ft | 5 kts | 208° |
| 2026-05-07 19:43 | 42.22583 | -83.33798 | 647 ft | 70 kts | 208° |
| 2026-05-07 19:43 | 42.21983 | -83.34241 | 647 ft | 124 kts | 209° |
| 2026-05-07 19:43 | 42.21156 | -83.34858 | 691 ft | 157 kts | 220° |
| 2026-05-07 19:44 | 42.20218 | -83.35592 | 1370 ft | 150 kts | 216° |
| 2026-05-07 19:44 | 42.19292 | -83.36246 | 1980 ft | 150 kts | 215° |
| 2026-05-07 19:44 | 42.18267 | -83.36715 | 2399 ft | 166 kts | 198° |
| 2026-05-07 19:44 | 42.17094 | -83.37088 | 2670 ft | 177 kts | 201° |
| 2026-05-07 19:45 | 42.15876 | -83.37550 | 2944 ft | 187 kts | 202° |
| 2026-05-07 19:45 | 42.14590 | -83.38078 | 3148 ft | 206 kts | 203° |
| 2026-05-07 19:45 | 42.13141 | -83.38695 | 3373 ft | 231 kts | 202° |
| 2026-05-07 19:45 | 42.11516 | -83.39341 | 3729 ft | 255 kts | 200° |
| 2026-05-07 19:46 | 42.09761 | -83.39988 | 4443 ft | 263 kts | 199° |
| 2026-05-07 19:46 | 42.07980 | -83.40658 | 5270 ft | 266 kts | 204° |
| 2026-05-07 19:46 | 42.06382 | -83.41840 | 6108 ft | 262 kts | 219° |
| 2026-05-07 19:46 | 42.04896 | -83.43261 | 6933 ft | 263 kts | 220° |
| 2026-05-07 19:47 | 42.03911 | -83.44220 | 7448 ft | 265 kts | 221° |
| 2026-05-07 19:47 | 42.02417 | -83.45689 | 8252 ft | 268 kts | 221° |
| 2026-05-07 19:47 | 42.00413 | -83.47664 | 9313 ft | 272 kts | 222° |
| 2026-05-07 19:47 | 41.98877 | -83.49173 | 10078 ft | 275 kts | 222° |
| 2026-05-07 19:48 | 41.97295 | -83.50768 | 10351 ft | 295 kts | 223° |
| 2026-05-07 19:48 | 41.95614 | -83.52518 | 10580 ft | 314 kts | 223° |
| 2026-05-07 19:48 | 41.93874 | -83.54339 | 11146 ft | 320 kts | 223° |
| 2026-05-07 19:48 | 41.92109 | -83.56174 | 11805 ft | 322 kts | 223° |
| 2026-05-07 19:49 | 41.90931 | -83.57394 | 12250 ft | 324 kts | 223° |
| 2026-05-07 19:49 | 41.89136 | -83.59247 | 12903 ft | 326 kts | 223° |
| 2026-05-07 19:49 | 41.86740 | -83.61711 | 13804 ft | 329 kts | 223° |
| 2026-05-07 19:49 | 41.84915 | -83.63582 | 14360 ft | 331 kts | 223° |
| 2026-05-07 19:50 | 41.83083 | -83.65458 | 14949 ft | 332 kts | 223° |
| 2026-05-07 19:50 | 41.81865 | -83.66707 | 15335 ft | 333 kts | 223° |
| 2026-05-07 19:50 | 41.80021 | -83.68599 | 15921 ft | 334 kts | 224° |
| 2026-05-07 19:50 | 41.78180 | -83.70488 | 16522 ft | 334 kts | 224° |
| 2026-05-07 19:51 | 41.76331 | -83.72387 | 17141 ft | 335 kts | 225° |
| 2026-05-07 19:51 | 41.74481 | -83.74285 | 17721 ft | 336 kts | 225° |
| 2026-05-07 19:51 | 41.72618 | -83.76194 | 18302 ft | 338 kts | 225° |
| 2026-05-07 19:51 | 41.70750 | -83.78109 | 18810 ft | 339 kts | 225° |
| 2026-05-07 19:52 | 41.68779 | -83.79888 | 19333 ft | 346 kts | 219° |
| 2026-05-07 19:52 | 41.66714 | -83.81542 | 19862 ft | 346 kts | 219° |
| 2026-05-07 19:52 | 41.64643 | -83.83200 | 20400 ft | 347 kts | 219° |
| 2026-05-07 19:52 | 41.62570 | -83.84865 | 20909 ft | 348 kts | 219° |
| 2026-05-07 19:53 | 41.60520 | -83.86515 | 21377 ft | 349 kts | 220° |
| 2026-05-07 19:53 | 41.58443 | -83.88184 | 21934 ft | 348 kts | 220° |
| 2026-05-07 19:53 | 41.56368 | -83.89845 | 22456 ft | 348 kts | 220° |
| 2026-05-07 19:53 | 41.54293 | -83.91503 | 22968 ft | 348 kts | 221° |
| 2026-05-07 19:54 | 41.52208 | -83.93174 | 23378 ft | 351 kts | 221° |
| 2026-05-07 19:54 | 41.50108 | -83.94861 | 23748 ft | 353 kts | 221° |
| 2026-05-07 19:54 | 41.47997 | -83.96556 | 24104 ft | 355 kts | 221° |
| 2026-05-07 19:54 | 41.45880 | -83.98253 | 24484 ft | 356 kts | 221° |
| 2026-05-07 19:55 | 41.43755 | -83.99950 | 24859 ft | 357 kts | 221° |
| 2026-05-07 19:55 | 41.41651 | -84.01624 | 25219 ft | 358 kts | 221° |
| 2026-05-07 19:55 | 41.39511 | -84.03326 | 25546 ft | 358 kts | 222° |
| 2026-05-07 19:55 | 41.37376 | -84.05018 | 25986 ft | 357 kts | 222° |
| 2026-05-07 19:56 | 41.35244 | -84.06710 | 26377 ft | 357 kts | 222° |
| 2026-05-07 19:56 | 41.33109 | -84.08410 | 26731 ft | 358 kts | 222° |
| 2026-05-07 19:56 | 41.30965 | -84.10115 | 27063 ft | 360 kts | 222° |
| 2026-05-07 19:56 | 41.28818 | -84.11835 | 27402 ft | 359 kts | 225° |
| 2026-05-07 19:57 | 41.26874 | -84.13832 | 27734 ft | 349 kts | 233° |
| 2026-05-07 19:57 | 41.25265 | -84.16138 | 28061 ft | 342 kts | 240° |
| 2026-05-07 19:57 | 41.23965 | -84.18738 | 28402 ft | 336 kts | 247° |
| 2026-05-07 19:57 | 41.22996 | -84.21552 | 28747 ft | 334 kts | 253° |
| 2026-05-07 19:58 | 41.22144 | -84.24427 | 29082 ft | 335 kts | 253° |
| 2026-05-07 19:58 | 41.21286 | -84.27306 | 29487 ft | 335 kts | 253° |
| 2026-05-07 19:58 | 41.20432 | -84.30161 | 29928 ft | 332 kts | 253° |
| 2026-05-07 19:58 | 41.19580 | -84.33008 | 30344 ft | 331 kts | 253° |
| 2026-05-07 19:59 | 41.18729 | -84.35845 | 30723 ft | 330 kts | 253° |
| 2026-05-07 19:59 | 41.17892 | -84.38633 | 31089 ft | 329 kts | 253° |
| 2026-05-07 19:59 | 41.17044 | -84.41451 | 31459 ft | 328 kts | 253° |
| 2026-05-07 19:59 | 41.16196 | -84.44261 | 31828 ft | 328 kts | 253° |
| 2026-05-07 20:00 | 41.15346 | -84.47069 | 31988 ft | 327 kts | 253° |
| 2026-05-07 20:00 | 41.14501 | -84.49858 | 32027 ft | 326 kts | 253° |
| 2026-05-07 20:00 | 41.12816 | -84.55424 | 32029 ft | 325 kts | 253° |
| 2026-05-07 20:01 | 41.11138 | -84.60976 | 32016 ft | 324 kts | 253° |
| 2026-05-07 20:01 | 41.09802 | -84.66600 | 32009 ft | 321 kts | 260° |
| 2026-05-07 20:02 | 41.08837 | -84.72392 | 32006 ft | 323 kts | 260° |
| 2026-05-07 20:02 | 41.07847 | -84.78225 | 32014 ft | 329 kts | 260° |
| 2026-05-07 20:03 | 41.06818 | -84.84286 | 32008 ft | 344 kts | 259° |
| 2026-05-07 20:03 | 41.05761 | -84.90477 | 32013 ft | 348 kts | 259° |
| 2026-05-07 20:04 | 41.04698 | -84.96752 | 32017 ft | 349 kts | 259° |
| 2026-05-07 20:04 | 41.03622 | -85.03024 | 32013 ft | 349 kts | 259° |
| 2026-05-07 20:05 | 41.02539 | -85.09308 | 31961 ft | 352 kts | 259° |
| 2026-05-07 20:05 | 41.01457 | -85.15621 | 31995 ft | 355 kts | 259° |
| 2026-05-07 20:06 | 41.00355 | -85.21983 | 32001 ft | 355 kts | 259° |
| 2026-05-07 20:06 | 40.99250 | -85.28348 | 32006 ft | 355 kts | 259° |
| 2026-05-07 20:07 | 40.98146 | -85.34707 | 32010 ft | 355 kts | 259° |
| 2026-05-07 20:07 | 40.97042 | -85.41027 | 32012 ft | 355 kts | 259° |
| 2026-05-07 20:08 | 40.95927 | -85.47387 | 31990 ft | 356 kts | 259° |
| 2026-05-07 20:08 | 40.94807 | -85.53774 | 31991 ft | 357 kts | 259° |
| 2026-05-07 20:09 | 40.93677 | -85.60179 | 31995 ft | 358 kts | 259° |
| 2026-05-07 20:10 | 40.91979 | -85.69749 | 32008 ft | 358 kts | 259° |
| 2026-05-07 20:10 | 40.90839 | -85.76170 | 32005 ft | 359 kts | 259° |
| 2026-05-07 20:11 | 40.89694 | -85.82590 | 32012 ft | 359 kts | 259° |
| 2026-05-07 20:11 | 40.88547 | -85.89010 | 32008 ft | 359 kts | 260° |
| 2026-05-07 20:12 | 40.87834 | -85.95468 | 32012 ft | 358 kts | 263° |
| 2026-05-07 20:12 | 40.87142 | -86.01988 | 32011 ft | 358 kts | 263° |
| 2026-05-07 20:13 | 40.86438 | -86.08498 | 32015 ft | 358 kts | 263° |
| 2026-05-07 20:13 | 40.85729 | -86.15014 | 32012 ft | 358 kts | 263° |
| 2026-05-07 20:14 | 40.85025 | -86.21488 | 32017 ft | 359 kts | 263° |
| 2026-05-07 20:14 | 40.84319 | -86.28010 | 31973 ft | 359 kts | 263° |
| 2026-05-07 20:15 | 40.83601 | -86.34538 | 31977 ft | 359 kts | 263° |
| 2026-05-07 20:15 | 40.82882 | -86.41073 | 31986 ft | 360 kts | 263° |
| 2026-05-07 20:16 | 40.82163 | -86.47562 | 31993 ft | 360 kts | 263° |
| 2026-05-07 20:16 | 40.81432 | -86.54101 | 32002 ft | 360 kts | 263° |
| 2026-05-07 20:17 | 40.80702 | -86.60635 | 32008 ft | 360 kts | 263° |
| 2026-05-07 20:17 | 40.79971 | -86.67174 | 32012 ft | 360 kts | 263° |
| 2026-05-07 20:18 | 40.79236 | -86.73672 | 32012 ft | 360 kts | 263° |
| 2026-05-07 20:18 | 40.78495 | -86.80203 | 32015 ft | 360 kts | 263° |
| 2026-05-07 20:19 | 40.77747 | -86.86744 | 32036 ft | 360 kts | 263° |
| 2026-05-07 20:19 | 40.76994 | -86.93280 | 32036 ft | 360 kts | 263° |
| 2026-05-07 20:20 | 40.76244 | -86.99772 | 32044 ft | 360 kts | 263° |
| 2026-05-07 20:20 | 40.75486 | -87.06301 | 32036 ft | 360 kts | 263° |
| 2026-05-07 20:21 | 40.74719 | -87.12832 | 32028 ft | 360 kts | 263° |
| 2026-05-07 20:21 | 40.73947 | -87.19367 | 32018 ft | 361 kts | 263° |
| 2026-05-07 20:22 | 40.73186 | -87.25860 | 32008 ft | 361 kts | 263° |
| 2026-05-07 20:22 | 40.72416 | -87.32373 | 32007 ft | 361 kts | 263° |
| 2026-05-07 20:23 | 40.71636 | -87.38909 | 31992 ft | 361 kts | 263° |
| 2026-05-07 20:23 | 40.70854 | -87.45454 | 31994 ft | 362 kts | 263° |
| 2026-05-07 20:24 | 40.70068 | -87.51963 | 31995 ft | 362 kts | 263° |
| 2026-05-07 20:24 | 40.69277 | -87.58519 | 31993 ft | 362 kts | 263° |
| 2026-05-07 20:25 | 40.68483 | -87.65066 | 31994 ft | 362 kts | 263° |
| 2026-05-07 20:25 | 40.67683 | -87.71620 | 31970 ft | 362 kts | 263° |
| 2026-05-07 20:26 | 40.66887 | -87.78140 | 31973 ft | 364 kts | 263° |
| 2026-05-07 20:26 | 40.66073 | -87.84721 | 31975 ft | 364 kts | 263° |
| 2026-05-07 20:27 | 40.65071 | -87.91267 | 31970 ft | 369 kts | 255° |
| 2026-05-07 20:27 | 40.62433 | -87.97168 | 31976 ft | 386 kts | 237° |
| 2026-05-07 20:28 | 40.58884 | -88.02414 | 31977 ft | 386 kts | 237° |
| 2026-05-07 20:28 | 40.55302 | -88.07693 | 31981 ft | 387 kts | 237° |
| 2026-05-07 20:29 | 40.51728 | -88.12978 | 31982 ft | 387 kts | 237° |
| 2026-05-07 20:29 | 40.48144 | -88.18278 | 31989 ft | 388 kts | 237° |
| 2026-05-07 20:30 | 40.44568 | -88.23544 | 31999 ft | 390 kts | 236° |
| 2026-05-07 20:30 | 40.40942 | -88.28868 | 32004 ft | 391 kts | 236° |
| 2026-05-07 20:31 | 40.37313 | -88.34185 | 32007 ft | 391 kts | 236° |
| 2026-05-07 20:31 | 40.33683 | -88.39498 | 32005 ft | 391 kts | 236° |
| 2026-05-07 20:32 | 40.30083 | -88.44766 | 32002 ft | 391 kts | 236° |
| 2026-05-07 20:32 | 40.26448 | -88.50073 | 31978 ft | 391 kts | 236° |
| 2026-05-07 20:33 | 40.22803 | -88.55387 | 31991 ft | 394 kts | 236° |
| 2026-05-07 20:33 | 40.19134 | -88.60726 | 32006 ft | 395 kts | 236° |
| 2026-05-07 20:34 | 40.15489 | -88.66015 | 32008 ft | 394 kts | 236° |
| 2026-05-07 20:34 | 40.11814 | -88.71336 | 32009 ft | 394 kts | 236° |
| 2026-05-07 20:35 | 40.08143 | -88.76654 | 32009 ft | 394 kts | 236° |
| 2026-05-07 20:35 | 40.04472 | -88.81964 | 32009 ft | 394 kts | 236° |
| 2026-05-07 20:36 | 40.00817 | -88.87229 | 31984 ft | 394 kts | 236° |
| 2026-05-07 20:36 | 39.97132 | -88.92531 | 32001 ft | 394 kts | 236° |
| 2026-05-07 20:37 | 39.93445 | -88.97826 | 32009 ft | 394 kts | 236° |
| 2026-05-07 20:37 | 39.89757 | -89.03115 | 32018 ft | 394 kts | 236° |
| 2026-05-07 20:38 | 39.86090 | -89.08361 | 32022 ft | 394 kts | 236° |
| 2026-05-07 20:38 | 39.82396 | -89.13638 | 32024 ft | 394 kts | 236° |
| 2026-05-07 20:39 | 39.78701 | -89.18909 | 31984 ft | 394 kts | 236° |
| 2026-05-07 20:39 | 39.75016 | -89.24163 | 32007 ft | 393 kts | 236° |
| 2026-05-07 20:40 | 39.71359 | -89.29374 | 32012 ft | 393 kts | 236° |
| 2026-05-07 20:40 | 39.67674 | -89.34614 | 32018 ft | 393 kts | 236° |
| 2026-05-07 20:41 | 39.63984 | -89.39837 | 32025 ft | 393 kts | 236° |
| 2026-05-07 20:41 | 39.60290 | -89.45061 | 32026 ft | 393 kts | 236° |
| 2026-05-07 20:42 | 39.56618 | -89.50242 | 31980 ft | 392 kts | 236° |
| 2026-05-07 20:42 | 39.52928 | -89.55437 | 32018 ft | 391 kts | 236° |
| 2026-05-07 20:43 | 39.49258 | -89.60617 | 32031 ft | 390 kts | 236° |
| 2026-05-07 20:43 | 39.45592 | -89.65775 | 32037 ft | 389 kts | 236° |
| 2026-05-07 20:44 | 39.41946 | -89.70881 | 32036 ft | 388 kts | 236° |
| 2026-05-07 20:44 | 39.38283 | -89.76013 | 32037 ft | 388 kts | 236° |
| 2026-05-07 20:45 | 39.34619 | -89.81133 | 31982 ft | 388 kts | 236° |
| 2026-05-07 20:45 | 39.30958 | -89.86244 | 32006 ft | 387 kts | 236° |
| 2026-05-07 20:46 | 39.27324 | -89.91314 | 32037 ft | 387 kts | 236° |
| 2026-05-07 20:46 | 39.23667 | -89.96404 | 32037 ft | 387 kts | 236° |
| 2026-05-07 20:47 | 39.20012 | -90.01476 | 32035 ft | 386 kts | 236° |
| 2026-05-07 20:47 | 39.16356 | -90.06553 | 32036 ft | 386 kts | 236° |
| 2026-05-07 20:48 | 39.12691 | -90.11625 | 32035 ft | 387 kts | 236° |
| 2026-05-07 20:48 | 39.09047 | -90.16651 | 32026 ft | 386 kts | 236° |
| 2026-05-07 20:49 | 39.05385 | -90.21702 | 32023 ft | 385 kts | 236° |
| 2026-05-07 20:49 | 39.01731 | -90.26745 | 32029 ft | 385 kts | 236° |
| 2026-05-07 20:50 | 38.98105 | -90.31746 | 32024 ft | 385 kts | 236° |
| 2026-05-07 20:50 | 38.94446 | -90.36761 | 32028 ft | 385 kts | 236° |
| 2026-05-07 20:51 | 38.90781 | -90.41780 | 32030 ft | 385 kts | 236° |
| 2026-05-07 20:51 | 38.87111 | -90.46802 | 32024 ft | 386 kts | 236° |
| 2026-05-07 20:52 | 38.83511 | -90.51846 | 32036 ft | 385 kts | 237° |
| 2026-05-07 20:52 | 38.80027 | -90.57035 | 32056 ft | 383 kts | 238° |
| 2026-05-07 20:53 | 38.76556 | -90.62226 | 32054 ft | 383 kts | 238° |
| 2026-05-07 20:53 | 38.73061 | -90.67386 | 32053 ft | 383 kts | 237° |
| 2026-05-07 20:54 | 38.69548 | -90.72525 | 32050 ft | 383 kts | 237° |
| 2026-05-07 20:54 | 38.66054 | -90.77611 | 32047 ft | 383 kts | 237° |
| 2026-05-07 20:55 | 38.62530 | -90.82743 | 32021 ft | 385 kts | 237° |
| 2026-05-07 20:55 | 38.59003 | -90.87887 | 32032 ft | 385 kts | 237° |
| 2026-05-07 20:56 | 38.55473 | -90.93027 | 32037 ft | 385 kts | 237° |
| 2026-05-07 20:56 | 38.51960 | -90.98122 | 32046 ft | 385 kts | 237° |
| 2026-05-07 20:57 | 38.48424 | -91.03245 | 32047 ft | 385 kts | 237° |
| 2026-05-07 20:57 | 38.44884 | -91.08366 | 32051 ft | 385 kts | 237° |
| 2026-05-07 20:58 | 38.41343 | -91.13486 | 32069 ft | 385 kts | 237° |
| 2026-05-07 20:58 | 38.37823 | -91.18571 | 32058 ft | 385 kts | 237° |
| 2026-05-07 20:59 | 38.34274 | -91.23690 | 32065 ft | 386 kts | 236° |
| 2026-05-07 20:59 | 38.30719 | -91.28803 | 32079 ft | 386 kts | 236° |
| 2026-05-07 21:00 | 38.27160 | -91.33918 | 32068 ft | 386 kts | 236° |
| 2026-05-07 21:00 | 38.23620 | -91.38991 | 32073 ft | 386 kts | 236° |
| 2026-05-07 21:01 | 38.20051 | -91.44090 | 32076 ft | 386 kts | 236° |
| 2026-05-07 21:01 | 38.16485 | -91.49187 | 32044 ft | 386 kts | 236° |
| 2026-05-07 21:02 | 38.12926 | -91.54278 | 32014 ft | 386 kts | 236° |
| 2026-05-07 21:02 | 38.09376 | -91.59333 | 32021 ft | 386 kts | 236° |
| 2026-05-07 21:03 | 38.05793 | -91.64417 | 32030 ft | 386 kts | 236° |
| 2026-05-07 21:03 | 38.02216 | -91.69503 | 32035 ft | 386 kts | 236° |
| 2026-05-07 21:04 | 37.98637 | -91.74586 | 32039 ft | 386 kts | 236° |
| 2026-05-07 21:04 | 37.95076 | -91.79627 | 32063 ft | 386 kts | 236° |
| 2026-05-07 21:05 | 37.91491 | -91.84691 | 32025 ft | 386 kts | 236° |
| 2026-05-07 21:05 | 37.87901 | -91.89750 | 32025 ft | 386 kts | 236° |
| 2026-05-07 21:06 | 37.84339 | -91.94777 | 32005 ft | 386 kts | 236° |
| 2026-05-07 21:06 | 37.80747 | -91.99833 | 32004 ft | 387 kts | 235° |
| 2026-05-07 21:07 | 37.77143 | -92.04886 | 32012 ft | 387 kts | 235° |
| 2026-05-07 21:07 | 37.73539 | -92.09936 | 32016 ft | 387 kts | 235° |
| 2026-05-07 21:08 | 37.69960 | -92.14946 | 32020 ft | 386 kts | 235° |
| 2026-05-07 21:08 | 37.66356 | -92.19983 | 31999 ft | 386 kts | 235° |
| 2026-05-07 21:09 | 37.62751 | -92.25018 | 32009 ft | 387 kts | 235° |
| 2026-05-07 21:09 | 37.59149 | -92.30047 | 32013 ft | 387 kts | 235° |
| 2026-05-07 21:10 | 37.55562 | -92.35045 | 32011 ft | 387 kts | 235° |
| 2026-05-07 21:10 | 37.51942 | -92.40074 | 32037 ft | 388 kts | 235° |
| 2026-05-07 21:11 | 37.48314 | -92.45099 | 32059 ft | 388 kts | 235° |
| 2026-05-07 21:11 | 37.42903 | -92.52600 | 32026 ft | 387 kts | 235° |
| 2026-05-07 21:12 | 37.39274 | -92.57602 | 32043 ft | 387 kts | 235° |
| 2026-05-07 21:12 | 37.35648 | -92.62598 | 32054 ft | 386 kts | 235° |
| 2026-05-07 21:13 | 37.32036 | -92.67587 | 32043 ft | 386 kts | 235° |
| 2026-05-07 21:13 | 37.28413 | -92.72569 | 32052 ft | 386 kts | 235° |
| 2026-05-07 21:14 | 37.24812 | -92.77516 | 32054 ft | 386 kts | 234° |
| 2026-05-07 21:14 | 37.21182 | -92.82493 | 32055 ft | 387 kts | 234° |
| 2026-05-07 21:15 | 37.17548 | -92.87461 | 32039 ft | 386 kts | 235° |
| 2026-05-07 21:15 | 37.13917 | -92.92415 | 32059 ft | 385 kts | 235° |
| 2026-05-07 21:16 | 37.10321 | -92.97331 | 32066 ft | 385 kts | 235° |
| 2026-05-07 21:16 | 37.06712 | -93.02274 | 32066 ft | 384 kts | 235° |
| 2026-05-07 21:17 | 37.03096 | -93.07195 | 32056 ft | 384 kts | 234° |
| 2026-05-07 21:17 | 36.99469 | -93.12104 | 32059 ft | 384 kts | 234° |
| 2026-05-07 21:18 | 36.95873 | -93.16976 | 32061 ft | 384 kts | 234° |
| 2026-05-07 21:18 | 36.92256 | -93.21875 | 32043 ft | 383 kts | 235° |
| 2026-05-07 21:19 | 36.88645 | -93.26761 | 32066 ft | 382 kts | 235° |
| 2026-05-07 21:19 | 36.85038 | -93.31631 | 32073 ft | 382 kts | 235° |
| 2026-05-07 21:20 | 36.81459 | -93.36460 | 32076 ft | 381 kts | 235° |
| 2026-05-07 21:20 | 36.77864 | -93.41310 | 32077 ft | 381 kts | 235° |
| 2026-05-07 21:21 | 36.74256 | -93.46156 | 32059 ft | 381 kts | 234° |
| 2026-05-07 21:21 | 36.70641 | -93.50998 | 32058 ft | 381 kts | 234° |
| 2026-05-07 21:22 | 36.67043 | -93.55825 | 32035 ft | 379 kts | 234° |
| 2026-05-07 21:22 | 36.63481 | -93.60588 | 32023 ft | 378 kts | 234° |
| 2026-05-07 21:23 | 36.59905 | -93.65365 | 32043 ft | 377 kts | 234° |
| 2026-05-07 21:23 | 36.56337 | -93.70136 | 32052 ft | 376 kts | 234° |
| 2026-05-07 21:24 | 36.52768 | -93.74892 | 32071 ft | 376 kts | 234° |
| 2026-05-07 21:24 | 36.49220 | -93.79610 | 32073 ft | 376 kts | 234° |
| 2026-05-07 21:25 | 36.45648 | -93.84357 | 32079 ft | 376 kts | 234° |
| 2026-05-07 21:25 | 36.42072 | -93.89101 | 32062 ft | 375 kts | 235° |
| 2026-05-07 21:26 | 36.38528 | -93.93786 | 32091 ft | 374 kts | 234° |
| 2026-05-07 21:26 | 36.34982 | -93.98494 | 32099 ft | 373 kts | 235° |
| 2026-05-07 21:27 | 36.31443 | -94.03183 | 32102 ft | 372 kts | 234° |
| 2026-05-07 21:27 | 36.27904 | -94.07850 | 32100 ft | 372 kts | 234° |
| 2026-05-07 21:28 | 36.23705 | -94.11734 | 32098 ft | 397 kts | 215° |
| 2026-05-07 21:28 | 36.21012 | -94.12796 | 32096 ft | 418 kts | 203° |
| 2026-05-07 21:28 | 36.18105 | -94.13332 | 32084 ft | 423 kts | 201° |
| 2026-05-07 21:29 | 36.12281 | -94.14344 | 32060 ft | 422 kts | 201° |
| 2026-05-07 21:29 | 36.06462 | -94.15354 | 32063 ft | 422 kts | 201° |
| 2026-05-07 21:30 | 36.00695 | -94.16363 | 32068 ft | 422 kts | 201° |
| 2026-05-07 21:30 | 35.94888 | -94.17390 | 32072 ft | 421 kts | 201° |
| 2026-05-07 21:31 | 35.89082 | -94.18412 | 32073 ft | 421 kts | 201° |
| 2026-05-07 21:31 | 35.83274 | -94.19424 | 32057 ft | 421 kts | 201° |
| 2026-05-07 21:32 | 35.77465 | -94.20439 | 32055 ft | 422 kts | 201° |
| 2026-05-07 21:32 | 35.71689 | -94.21449 | 32058 ft | 422 kts | 201° |
| 2026-05-07 21:33 | 35.65881 | -94.22464 | 32045 ft | 421 kts | 201° |
| 2026-05-07 21:33 | 35.60068 | -94.23473 | 32065 ft | 421 kts | 201° |
| 2026-05-07 21:34 | 35.54268 | -94.24471 | 32075 ft | 421 kts | 201° |
| 2026-05-07 21:34 | 35.48509 | -94.25469 | 32077 ft | 421 kts | 201° |
| 2026-05-07 21:35 | 35.42719 | -94.26505 | 32080 ft | 415 kts | 205° |
| 2026-05-07 21:35 | 35.40014 | -94.27476 | 32036 ft | 398 kts | 214° |
| 2026-05-07 21:35 | 35.37578 | -94.28954 | 32047 ft | 385 kts | 222° |
| 2026-05-07 21:36 | 35.35441 | -94.30842 | 32050 ft | 374 kts | 230° |
| 2026-05-07 21:36 | 35.33505 | -94.32954 | 32055 ft | 373 kts | 230° |
| 2026-05-07 21:36 | 35.29659 | -94.37146 | 32066 ft | 373 kts | 230° |
| 2026-05-07 21:37 | 35.25780 | -94.41353 | 32078 ft | 372 kts | 230° |
| 2026-05-07 21:37 | 35.21900 | -94.45553 | 32066 ft | 372 kts | 230° |
| 2026-05-07 21:38 | 35.18016 | -94.49743 | 32061 ft | 372 kts | 230° |
| 2026-05-07 21:38 | 35.14165 | -94.53905 | 32043 ft | 372 kts | 230° |
| 2026-05-07 21:39 | 35.10295 | -94.58080 | 32051 ft | 371 kts | 230° |
| 2026-05-07 21:39 | 35.06423 | -94.62253 | 32058 ft | 371 kts | 230° |
| 2026-05-07 21:40 | 35.02549 | -94.66425 | 32063 ft | 371 kts | 230° |
| 2026-05-07 21:40 | 34.98701 | -94.70561 | 32062 ft | 371 kts | 230° |
| 2026-05-07 21:41 | 34.94823 | -94.74719 | 32056 ft | 371 kts | 230° |
| 2026-05-07 21:41 | 34.90947 | -94.78866 | 32056 ft | 371 kts | 230° |
| 2026-05-07 21:42 | 34.87070 | -94.83016 | 32026 ft | 371 kts | 230° |
| 2026-05-07 21:42 | 34.83216 | -94.87133 | 32036 ft | 371 kts | 230° |
| 2026-05-07 21:43 | 34.79310 | -94.91239 | 32040 ft | 372 kts | 229° |
| 2026-05-07 21:43 | 34.75340 | -94.95274 | 32051 ft | 372 kts | 228° |
| 2026-05-07 21:44 | 34.71365 | -94.99301 | 32047 ft | 372 kts | 228° |
| 2026-05-07 21:44 | 34.67428 | -95.03311 | 32050 ft | 372 kts | 228° |
| 2026-05-07 21:45 | 34.63468 | -95.07353 | 32054 ft | 372 kts | 229° |
| 2026-05-07 21:45 | 34.59505 | -95.11388 | 32026 ft | 372 kts | 228° |
| 2026-05-07 21:46 | 34.55535 | -95.15417 | 32037 ft | 372 kts | 228° |
| 2026-05-07 21:46 | 34.51566 | -95.19438 | 32045 ft | 372 kts | 228° |
| 2026-05-07 21:47 | 34.47617 | -95.23438 | 32049 ft | 372 kts | 228° |
| 2026-05-07 21:47 | 34.43643 | -95.27466 | 32054 ft | 372 kts | 228° |
| 2026-05-07 21:48 | 34.39661 | -95.31481 | 32058 ft | 372 kts | 228° |
| 2026-05-07 21:48 | 34.35699 | -95.35459 | 32023 ft | 372 kts | 227° |
| 2026-05-07 21:49 | 34.31717 | -95.39465 | 32033 ft | 373 kts | 227° |
| 2026-05-07 21:49 | 34.27726 | -95.43470 | 32043 ft | 373 kts | 227° |
| 2026-05-07 21:50 | 34.23726 | -95.47472 | 32048 ft | 373 kts | 227° |
| 2026-05-07 21:50 | 34.19727 | -95.51478 | 32054 ft | 373 kts | 227° |
| 2026-05-07 21:51 | 34.15748 | -95.55449 | 32057 ft | 374 kts | 227° |
| 2026-05-07 21:51 | 34.11739 | -95.59443 | 32060 ft | 374 kts | 227° |
| 2026-05-07 21:52 | 34.07737 | -95.63437 | 32040 ft | 373 kts | 227° |
| 2026-05-07 21:52 | 34.03734 | -95.67436 | 32051 ft | 374 kts | 227° |
| 2026-05-07 21:53 | 33.99750 | -95.71405 | 32057 ft | 374 kts | 227° |
| 2026-05-07 21:53 | 33.95737 | -95.75398 | 32067 ft | 374 kts | 227° |
| 2026-05-07 21:54 | 33.91720 | -95.79382 | 32067 ft | 374 kts | 226° |
| 2026-05-07 21:54 | 33.87709 | -95.83357 | 32069 ft | 374 kts | 226° |
| 2026-05-07 21:55 | 33.83717 | -95.87305 | 32018 ft | 374 kts | 226° |
| 2026-05-07 21:55 | 33.81708 | -95.89293 | 31771 ft | 374 kts | 226° |
| 2026-05-07 21:55 | 33.79696 | -95.91282 | 31487 ft | 375 kts | 226° |
| 2026-05-07 21:56 | 33.77683 | -95.93270 | 30794 ft | 375 kts | 226° |
| 2026-05-07 21:56 | 33.75657 | -95.95268 | 29934 ft | 378 kts | 226° |
| 2026-05-07 21:56 | 33.73639 | -95.97262 | 29286 ft | 374 kts | 226° |
| 2026-05-07 21:56 | 33.71631 | -95.99245 | 28558 ft | 373 kts | 226° |
| 2026-05-07 21:57 | 33.69637 | -96.01216 | 27902 ft | 370 kts | 226° |
| 2026-05-07 21:57 | 33.67653 | -96.03175 | 27245 ft | 368 kts | 226° |
| 2026-05-07 21:57 | 33.65699 | -96.05096 | 26598 ft | 367 kts | 226° |
| 2026-05-07 21:57 | 33.63724 | -96.07036 | 25941 ft | 367 kts | 227° |
| 2026-05-07 21:58 | 33.61754 | -96.08978 | 25283 ft | 367 kts | 227° |
| 2026-05-07 21:58 | 33.59782 | -96.10923 | 24632 ft | 367 kts | 227° |
| 2026-05-07 21:58 | 33.57805 | -96.12872 | 23960 ft | 369 kts | 227° |
| 2026-05-07 21:58 | 33.55819 | -96.14830 | 23247 ft | 371 kts | 227° |
| 2026-05-07 21:59 | 33.53828 | -96.16787 | 22713 ft | 367 kts | 226° |
| 2026-05-07 21:59 | 33.51861 | -96.18712 | 22432 ft | 364 kts | 226° |
| 2026-05-07 21:59 | 33.49928 | -96.20599 | 22178 ft | 362 kts | 226° |
| 2026-05-07 21:59 | 33.47983 | -96.22501 | 21923 ft | 361 kts | 226° |
| 2026-05-07 22:00 | 33.46037 | -96.24407 | 21664 ft | 360 kts | 226° |
| 2026-05-07 22:00 | 33.44195 | -96.26393 | 21414 ft | 353 kts | 233° |
| 2026-05-07 22:00 | 33.42594 | -96.28606 | 21167 ft | 351 kts | 235° |
| 2026-05-07 22:00 | 33.41021 | -96.30787 | 20917 ft | 342 kts | 234° |
| 2026-05-07 22:01 | 33.39472 | -96.32915 | 20625 ft | 337 kts | 234° |
| 2026-05-07 22:01 | 33.37935 | -96.35022 | 20199 ft | 335 kts | 234° |
| 2026-05-07 22:01 | 33.36410 | -96.37114 | 19740 ft | 333 kts | 234° |
| 2026-05-07 22:01 | 33.34914 | -96.39170 | 19305 ft | 331 kts | 234° |
| 2026-05-07 22:02 | 33.33407 | -96.41245 | 18860 ft | 330 kts | 234° |
| 2026-05-07 22:02 | 33.31907 | -96.43311 | 18419 ft | 328 kts | 234° |
| 2026-05-07 22:02 | 33.30423 | -96.45380 | 17908 ft | 327 kts | 234° |
| 2026-05-07 22:02 | 33.28954 | -96.47442 | 17457 ft | 325 kts | 234° |
| 2026-05-07 22:03 | 33.27495 | -96.49495 | 17017 ft | 323 kts | 234° |
| 2026-05-07 22:03 | 33.26025 | -96.51516 | 16693 ft | 322 kts | 233° |
| 2026-05-07 22:03 | 33.24530 | -96.53504 | 16386 ft | 321 kts | 232° |
| 2026-05-07 22:03 | 33.23047 | -96.55444 | 16079 ft | 320 kts | 232° |
| 2026-05-07 22:04 | 33.21552 | -96.57396 | 15747 ft | 318 kts | 232° |
| 2026-05-07 22:04 | 33.20080 | -96.59319 | 15484 ft | 310 kts | 232° |
| 2026-05-07 22:04 | 33.18643 | -96.61204 | 15142 ft | 305 kts | 232° |
| 2026-05-07 22:04 | 33.17231 | -96.63072 | 14802 ft | 302 kts | 233° |
| 2026-05-07 22:05 | 33.15853 | -96.64946 | 14418 ft | 299 kts | 233° |
| 2026-05-07 22:05 | 33.14498 | -96.66819 | 14033 ft | 297 kts | 234° |
| 2026-05-07 22:05 | 33.13152 | -96.68684 | 13633 ft | 296 kts | 233° |
| 2026-05-07 22:05 | 33.11831 | -96.70503 | 13358 ft | 290 kts | 233° |
| 2026-05-07 22:06 | 33.10528 | -96.72282 | 13228 ft | 280 kts | 233° |
| 2026-05-07 22:06 | 33.09272 | -96.73998 | 13100 ft | 270 kts | 233° |
| 2026-05-07 22:06 | 33.08056 | -96.75663 | 12921 ft | 263 kts | 233° |
| 2026-05-07 22:06 | 33.06863 | -96.77298 | 12667 ft | 260 kts | 233° |
| 2026-05-07 22:07 | 33.05680 | -96.78912 | 12423 ft | 258 kts | 233° |
| 2026-05-07 22:07 | 33.04500 | -96.80518 | 12179 ft | 257 kts | 233° |
| 2026-05-07 22:07 | 33.03321 | -96.82120 | 11933 ft | 257 kts | 233° |
| 2026-05-07 22:07 | 33.02146 | -96.83710 | 11991 ft | 257 kts | 233° |
| 2026-05-07 22:08 | 33.00962 | -96.85314 | 12021 ft | 258 kts | 233° |
| 2026-05-07 22:08 | 32.99819 | -96.86857 | 12022 ft | 246 kts | 233° |
| 2026-05-07 22:08 | 32.98718 | -96.88340 | 12027 ft | 232 kts | 233° |
| 2026-05-07 22:08 | 32.97550 | -96.89625 | 12028 ft | 231 kts | 218° |
| 2026-05-07 22:09 | 32.96033 | -96.90355 | 11910 ft | 243 kts | 197° |
| 2026-05-07 22:09 | 32.94332 | -96.90523 | 11669 ft | 246 kts | 191° |
| 2026-05-07 22:09 | 32.92623 | -96.90642 | 11450 ft | 245 kts | 191° |
| 2026-05-07 22:09 | 32.90920 | -96.90761 | 11225 ft | 245 kts | 191° |
| 2026-05-07 22:10 | 32.89206 | -96.90882 | 11003 ft | 244 kts | 191° |
| 2026-05-07 22:10 | 32.87531 | -96.91004 | 10792 ft | 243 kts | 191° |
| 2026-05-07 22:10 | 32.85863 | -96.91126 | 10581 ft | 243 kts | 191° |
| 2026-05-07 22:10 | 32.84182 | -96.91249 | 10369 ft | 242 kts | 191° |
| 2026-05-07 22:11 | 32.82503 | -96.91372 | 10154 ft | 241 kts | 191° |
| 2026-05-07 22:11 | 32.80829 | -96.91496 | 9941 ft | 240 kts | 191° |
| 2026-05-07 22:11 | 32.79160 | -96.91611 | 9714 ft | 241 kts | 189° |
| 2026-05-07 22:11 | 32.77482 | -96.91646 | 9490 ft | 241 kts | 187° |
| 2026-05-07 22:12 | 32.75803 | -96.91640 | 9297 ft | 241 kts | 186° |
| 2026-05-07 22:12 | 32.74123 | -96.91625 | 9084 ft | 241 kts | 186° |
| 2026-05-07 22:12 | 32.72446 | -96.91611 | 8871 ft | 241 kts | 186° |
| 2026-05-07 22:12 | 32.70786 | -96.91600 | 8572 ft | 244 kts | 185° |
| 2026-05-07 22:13 | 32.69082 | -96.91595 | 8193 ft | 247 kts | 185° |
| 2026-05-07 22:13 | 32.67356 | -96.91590 | 7825 ft | 248 kts | 185° |
| 2026-05-07 22:13 | 32.65653 | -96.91584 | 7463 ft | 242 kts | 184° |
| 2026-05-07 22:13 | 32.63983 | -96.91577 | 7104 ft | 238 kts | 184° |
| 2026-05-07 22:14 | 32.62337 | -96.91575 | 6745 ft | 236 kts | 184° |
| 2026-05-07 22:14 | 32.60702 | -96.91575 | 6484 ft | 234 kts | 184° |
| 2026-05-07 22:14 | 32.59065 | -96.91618 | 6366 ft | 233 kts | 193° |
| 2026-05-07 22:14 | 32.57654 | -96.92405 | 6234 ft | 223 kts | 228° |
| 2026-05-07 22:15 | 32.56923 | -96.93940 | 6131 ft | 218 kts | 261° |
| 2026-05-07 22:15 | 32.57052 | -96.95705 | 6035 ft | 218 kts | 291° |
| 2026-05-07 22:15 | 32.57631 | -96.97376 | 6033 ft | 220 kts | 291° |
| 2026-05-07 22:15 | 32.58181 | -96.99072 | 6012 ft | 220 kts | 290° |
| 2026-05-07 22:16 | 32.58856 | -97.00699 | 5973 ft | 221 kts | 306° |
| 2026-05-07 22:16 | 32.59958 | -97.01958 | 5840 ft | 222 kts | 326° |
| 2026-05-07 22:16 | 32.61375 | -97.02660 | 5619 ft | 223 kts | 347° |
| 2026-05-07 22:16 | 32.62927 | -97.02760 | 5359 ft | 223 kts | 359° |
| 2026-05-07 22:17 | 32.64475 | -97.02746 | 5118 ft | 222 kts | 359° |
| 2026-05-07 22:17 | 32.65993 | -97.02735 | 4838 ft | 222 kts | 360° |
| 2026-05-07 22:17 | 32.67536 | -97.02727 | 4530 ft | 221 kts | 0° |
| 2026-05-07 22:17 | 32.69071 | -97.02718 | 4241 ft | 220 kts | 0° |
| 2026-05-07 22:18 | 32.70600 | -97.02710 | 3943 ft | 217 kts | 1° |
| 2026-05-07 22:18 | 32.73511 | -97.02695 | 3419 ft | 203 kts | 1° |
| 2026-05-07 22:18 | 32.74909 | -97.02687 | 3144 ft | 199 kts | 1° |
| 2026-05-07 22:19 | 32.76276 | -97.02680 | 2873 ft | 194 kts | 2° |
| 2026-05-07 22:19 | 32.77581 | -97.02673 | 2624 ft | 185 kts | 1° |
| 2026-05-07 22:19 | 32.78823 | -97.02667 | 2390 ft | 174 kts | 2° |
| 2026-05-07 22:19 | 32.79982 | -97.02661 | 2146 ft | 158 kts | 2° |
| 2026-05-07 22:20 | 32.81047 | -97.02655 | 1926 ft | 149 kts | 2° |
| 2026-05-07 22:20 | 32.82077 | -97.02650 | 1732 ft | 147 kts | 2° |
| 2026-05-07 22:20 | 32.83094 | -97.02644 | 1530 ft | 146 kts | 2° |
| 2026-05-07 22:20 | 32.84104 | -97.02638 | 1360 ft | 145 kts | 1° |
| 2026-05-07 22:21 | 32.85108 | -97.02626 | 1168 ft | 144 kts | 1° |
| 2026-05-07 22:21 | 32.86110 | -97.02620 | 979 ft | 144 kts | 360° |
| 2026-05-07 22:21 | 32.87096 | -97.02618 | 769 ft | 143 kts | 0° |
| 2026-05-07 22:21 | 32.88094 | -97.02615 | 585 ft | 143 kts | 0° |
| 2026-05-07 22:22 | 32.88967 | -97.02612 | 579 ft | 103 kts | 0° |
| 2026-05-07 22:22 | 32.89516 | -97.02609 | 570 ft | 56 kts | 360° |
| 2026-05-07 22:22 | 32.89790 | -97.02618 | 572 ft | 34 kts | 344° |
| 2026-05-07 22:22 | 32.89989 | -97.02721 | 578 ft | 25 kts | 333° |
| 2026-05-07 22:23 | 32.90068 | -97.02774 | 577 ft | 6 kts | 330° |
| 2026-05-07 22:23 | 32.90115 | -97.02800 | 576 ft | 11 kts | 351° |
| 2026-05-07 22:23 | 32.90236 | -97.02800 | 573 ft | 22 kts | 359° |
| 2026-05-07 22:23 | 32.90395 | -97.02800 | 576 ft | 23 kts | 360° |
| 2026-05-07 22:24 | 32.90466 | -97.02844 | 578 ft | 12 kts | 267° |
| 2026-05-07 22:24 | 32.90463 | -97.03006 | 571 ft | 25 kts | 272° |
| 2026-05-07 22:24 | 32.90467 | -97.03183 | 574 ft | 16 kts | 272° |
| 2026-05-07 22:24 | 32.90463 | -97.03294 | 584 ft | 10 kts | 238° |
| 2026-05-07 22:25 | 32.90347 | -97.03312 | 585 ft | 24 kts | 180° |
| 2026-05-07 22:25 | 32.90173 | -97.03314 | 585 ft | 26 kts | 180° |
| 2026-05-07 22:25 | 32.89985 | -97.03315 | 586 ft | 28 kts | 180° |
| 2026-05-07 22:25 | 32.89805 | -97.03315 | 586 ft | 25 kts | 181° |
| 2026-05-07 22:26 | 32.89625 | -97.03313 | 586 ft | 27 kts | 179° |
| 2026-05-07 22:26 | 32.89433 | -97.03318 | 585 ft | 28 kts | 181° |
| 2026-05-07 22:26 | 32.89239 | -97.03318 | 583 ft | 29 kts | 179° |
| 2026-05-07 22:26 | 32.89077 | -97.03319 | 583 ft | 22 kts | 179° |
| 2026-05-07 22:27 | 32.88929 | -97.03320 | 582 ft | 22 kts | 178° |
| 2026-05-07 22:27 | 32.88766 | -97.03321 | 583 ft | 25 kts | 180° |
| 2026-05-07 22:27 | 32.88619 | -97.03326 | 582 ft | 14 kts | 198° |
| 2026-05-07 22:27 | 32.88602 | -97.03443 | 583 ft | 17 kts | 269° |
| 2026-05-07 22:28 | 32.88618 | -97.03559 | 584 ft | 13 kts | 322° |
| 2026-05-07 22:28 | 32.88710 | -97.03577 | 584 ft | 14 kts | 341° |
| 2026-05-07 22:28 | 32.88790 | -97.03591 | 584 ft | 8 kts | 346° |
| 2026-05-07 22:28 | 32.88814 | -97.03613 | 584 ft | 1 kts | 321° |
| 2026-05-07 22:29 | 32.88820 | -97.03619 | 584 ft | 0 kts | 322° |